createdAt,value
2018-04-25T17:50:42.764Z,100563.36
2018-04-25T17:53:08.660Z,100565.16
2018-04-25T17:55:34.536Z,100561.62
2018-04-25T17:58:00.463Z,100573.06
2018-04-25T18:00:26.340Z,100580.94
2018-04-25T18:02:52.385Z,100581.56
2018-04-25T18:05:18.327Z,100581.76
2018-04-25T18:07:44.211Z,100573.55
2018-04-25T18:10:10.582Z,100578.89
2018-04-25T18:12:36.491Z,100592.48
2018-04-25T18:15:02.544Z,100589.44
2018-04-25T18:17:29.039Z,100586.02
2018-04-25T18:19:55.502Z,100586.84
2018-04-25T18:22:21.488Z,100580.96
2018-04-25T18:24:47.408Z,100592.13
2018-04-25T18:27:13.500Z,100601.38
2018-04-25T18:29:39.379Z,100592.93
2018-04-25T18:32:05.275Z,100599.07
2018-04-25T18:34:31.253Z,100612.25
2018-04-25T18:36:57.197Z,100623.45
2018-04-25T18:39:23.299Z,100626.38
2018-04-25T18:41:49.606Z,100621.62
2018-04-25T18:44:15.514Z,100617.33
2018-04-25T18:46:42.504Z,100624.02
2018-04-25T18:49:08.454Z,100625.88
2018-04-25T18:51:34.538Z,100627.36
2018-04-25T18:54:01.522Z,100631.77
2018-04-25T18:56:31.071Z,100637.52
2018-04-25T18:58:57.146Z,100639.10
2018-04-25T19:01:23.564Z,100639.52
2018-04-25T19:03:50.708Z,100639.61
2018-04-25T19:06:16.668Z,100640.73
2018-04-25T19:08:42.567Z,100660.50
2018-04-25T19:11:08.486Z,100658.66
2018-04-25T19:13:34.464Z,100658.45
2018-04-25T19:16:00.498Z,100656.97
2018-04-25T19:18:26.432Z,100665.20
2018-04-25T19:20:56.715Z,100658.45
2018-04-25T19:23:22.764Z,100655.19
2018-04-25T19:25:49.902Z,100671.13
2018-04-25T19:28:15.928Z,100686.69
2018-04-25T19:30:41.844Z,100682.34
2018-04-25T19:33:09.659Z,100685.26
2018-04-25T19:35:35.698Z,100686.39
2018-04-25T19:38:01.601Z,100684.46
2018-04-25T19:40:31.066Z,100693.91
2018-04-25T19:42:58.855Z,100691.88
2018-04-25T19:45:25.225Z,100698.64
2018-04-25T19:47:51.295Z,100700.56
2018-04-25T19:50:17.952Z,100695.00
2018-04-25T19:52:45.459Z,100706.62
2018-04-25T19:55:12.506Z,100717.75
2018-04-25T19:57:39.296Z,100703.40
2018-04-25T20:00:05.186Z,100699.08
2018-04-25T20:02:34.117Z,100683.12
2018-04-25T20:05:00.255Z,100685.36
2018-04-25T20:07:26.143Z,100694.16
2018-04-25T20:09:52.393Z,100701.30
2018-04-25T20:12:18.291Z,100706.09
2018-04-25T20:14:44.188Z,100708.39
2018-04-25T20:17:10.284Z,100706.78
2018-04-25T20:19:36.184Z,100707.23
2018-04-25T20:22:02.079Z,100707.36
2018-04-25T20:24:28.009Z,100709.60
2018-04-25T20:26:53.892Z,100708.73
2018-04-25T20:29:19.906Z,100700.02
2018-04-25T20:31:45.844Z,100701.87
2018-04-25T20:34:11.814Z,100698.06
2018-04-25T20:36:37.693Z,100693.73
2018-04-25T20:39:03.740Z,100695.98
2018-04-25T20:41:29.783Z,100697.34
2018-04-25T20:43:55.756Z,100695.31
2018-04-25T20:46:21.669Z,100694.03
2018-04-25T20:48:47.657Z,100704.56
2018-04-25T20:51:13.640Z,100716.88
2018-04-25T20:53:39.740Z,100705.89
2018-04-25T20:56:05.620Z,100713.00
2018-04-25T20:58:31.499Z,100710.38
2018-04-25T21:00:57.581Z,100723.61
2018-04-25T21:03:23.580Z,100720.66
2018-04-25T21:05:49.589Z,100722.92
2018-04-25T21:08:15.492Z,100722.11
2018-04-25T21:10:41.380Z,100723.06
2018-04-25T21:13:07.268Z,100731.80
2018-04-25T21:15:33.604Z,100730.52
2018-04-25T21:17:59.711Z,100734.93
2018-04-25T21:20:25.571Z,100726.56
2018-04-25T21:22:52.395Z,100728.39
2018-04-25T21:25:18.268Z,100731.02
2018-04-25T21:27:44.151Z,100717.97
2018-04-25T21:30:10.219Z,100717.16
2018-04-25T21:32:36.105Z,100717.21
2018-04-25T21:35:02.001Z,100707.25
2018-04-25T21:37:27.951Z,100705.87
2018-04-25T21:39:53.836Z,100704.16
2018-04-25T21:42:19.871Z,100714.67
2018-04-25T21:44:45.799Z,100722.08
2018-04-25T21:47:11.700Z,100727.73
2018-04-25T21:49:37.593Z,100729.06
2018-04-25T21:52:03.537Z,100732.13
2018-04-25T21:54:29.601Z,100726.98
2018-04-25T21:56:55.495Z,100722.95
2018-04-25T21:59:21.422Z,100721.33
2018-04-25T22:01:47.316Z,100716.17
2018-04-25T22:04:13.199Z,100715.82
2018-04-25T22:06:39.315Z,100711.11
2018-04-25T22:09:05.211Z,100720.20
2018-04-25T22:11:31.087Z,100721.52
2018-04-25T22:13:57.321Z,100721.13
2018-04-25T22:16:23.207Z,100719.44
2018-04-25T22:18:50.057Z,100723.40
2018-04-25T22:21:16.002Z,100719.13
2018-04-25T22:23:41.885Z,100712.58
2018-04-25T22:26:07.783Z,100710.41
2018-04-25T22:28:33.700Z,100703.53
2018-04-25T22:30:59.781Z,100708.25
2018-04-25T22:33:25.670Z,100704.25
2018-04-25T22:35:51.577Z,100715.47
2018-04-25T22:38:17.489Z,100717.07
2018-04-25T22:40:43.383Z,100718.27
2018-04-25T22:43:09.476Z,100724.67
2018-04-25T22:45:35.347Z,100723.27
2018-04-25T22:48:01.224Z,100724.89
2018-04-25T22:50:27.147Z,100726.91
2018-04-25T22:52:53.031Z,100725.13
2018-04-25T22:55:19.068Z,100730.62
2018-04-25T22:57:44.989Z,100733.97
2018-04-25T23:00:10.881Z,100732.95
2018-04-25T23:02:36.811Z,100724.66
2018-04-25T23:05:02.736Z,100722.51
2018-04-25T23:07:28.744Z,100719.56
2018-04-25T23:09:54.639Z,100717.47
2018-04-25T23:12:20.572Z,100720.70
2018-04-25T23:14:46.459Z,100732.58
2018-04-25T23:17:12.339Z,100740.09
2018-04-25T23:19:38.401Z,100734.93
2018-04-25T23:22:04.293Z,100728.06
2018-04-25T23:24:30.176Z,100728.06
2018-04-25T23:26:56.111Z,100727.53
2018-04-25T23:29:22.006Z,100734.52
2018-04-25T23:31:48.020Z,100733.13
2018-04-25T23:34:13.934Z,100737.00
2018-04-25T23:36:39.828Z,100746.10
2018-04-25T23:39:05.707Z,100741.74
2018-04-25T23:41:31.650Z,100741.28
2018-04-25T23:43:57.674Z,100742.91
2018-04-25T23:46:23.579Z,100743.70
2018-04-25T23:48:49.838Z,100746.97
2018-04-25T23:51:15.740Z,100735.19
2018-04-25T23:53:41.610Z,100738.20
2018-04-25T23:56:07.681Z,100745.11
2018-04-25T23:58:33.557Z,100741.13
